Time;durP1;ratioP1;P1;durP2;ratioP2;P2;SDS_P1;SDS_P2;PMS_P1;PMS_P2;Temp;Humidity;BMP_temperature;BMP_pressure;BME280_temperature;BME280_humidity;BME280_pressure;Samples;Min_cycle;Max_cycle;Signal;HPM_P1;HPM_P2
2022/09/12 00:01:19;;;;;;;6.10;5.60;;;;;;;;;;5014748;28;20025;-81
2022/09/12 00:03:45;;;;;;;5.60;5.10;;;;;;;;;;5014525;28;20040;-82
2022/09/12 00:06:19;;;;;;;6.57;5.40;;;;;;;;;;5014672;28;20026;-80
2022/09/12 00:08:45;;;;;;;5.53;5.03;;;;;;;;;;5014592;28;20535;-78
2022/09/12 00:11:12;;;;;;;6.35;5.15;;;;;;;;;;5014468;28;20105;-79
2022/09/12 00:13:39;;;;;;;5.35;4.93;;;;;;;;;;5014535;28;20022;-80
2022/09/12 00:16:05;;;;;;;4.65;4.25;;;;;;;;;;5014447;28;20026;-80
2022/09/12 00:18:32;;;;;;;5.22;4.80;;;;;;;;;;5014436;28;20057;-80
2022/09/12 00:21:01;;;;;;;4.90;3.92;;;;;;;;;;5014445;28;20080;-85
2022/09/12 00:23:27;;;;;;;5.75;5.20;;;;;;;;;;5014110;28;20046;-81
2022/09/12 00:25:53;;;;;;;5.65;5.05;;;;;;;;;;5014159;28;20029;-80
2022/09/12 00:28:19;;;;;;;6.00;5.50;;;;;;;;;;4996751;28;20026;-81
2022/09/12 00:30:46;;;;;;;5.80;5.30;;;;;;;;;;5014059;28;20523;-78
2022/09/12 00:33:13;;;;;;;5.90;5.30;;;;;;;;;;5013838;28;20022;-79
2022/09/12 00:35:46;;;;;;;5.03;4.53;;;;;;;;;;5013897;28;20599;-80
2022/09/12 00:38:13;;;;;;;5.78;4.63;;;;;;;;;;5014036;28;20030;-79
2022/09/12 00:40:39;;;;;;;6.00;5.40;;;;;;;;;;5013844;28;20115;-79
2022/09/12 00:43:05;;;;;;;5.60;5.10;;;;;;;;;;5014068;28;20500;-82
2022/09/12 00:45:32;;;;;;;6.35;5.82;;;;;;;;;;5013710;28;20036;-80
2022/09/12 00:48:01;;;;;;;5.93;5.32;;;;;;;;;;5013903;28;20041;-83
2022/09/12 00:50:27;;;;;;;5.88;4.97;;;;;;;;;;5013800;28;20097;-80
2022/09/12 00:53:03;;;;;;;5.00;4.60;;;;;;;;;;5013729;28;20025;-81
2022/09/12 00:55:35;;;;;;;5.82;5.22;;;;;;;;;;5013433;28;20488;-81
2022/09/12 00:58:07;;;;;;;5.38;4.88;;;;;;;;;;5014189;28;20085;-82
2022/09/12 01:00:33;;;;;;;4.47;3.88;;;;;;;;;;5013802;28;20025;-79
2022/09/12 01:03:01;;;;;;;5.30;4.80;;;;;;;;;;5013680;28;20048;-79
2022/09/12 01:05:28;;;;;;;5.10;4.60;;;;;;;;;;5013227;28;20045;-82
2022/09/12 01:07:55;;;;;;;5.13;4.47;;;;;;;;;;5013559;28;20018;-79
2022/09/12 01:10:21;;;;;;;6.03;4.78;;;;;;;;;;5013402;28;20032;-79
2022/09/12 01:12:48;;;;;;;5.20;4.70;;;;;;;;;;5013511;28;20018;-79
2022/09/12 01:15:14;;;;;;;5.25;4.75;;;;;;;;;;5013414;28;20529;-80
2022/09/12 01:18:01;;;;;;;5.55;4.82;;;;;;;;;;5013372;28;20388;-80
2022/09/12 01:20:39;;;;;;;5.60;5.20;;;;;;;;;;5013384;28;20028;-81
2022/09/12 01:23:09;;;;;;;4.97;4.50;;;;;;;;;;5013190;28;20025;-80
2022/09/12 01:25:50;;;;;;;5.65;4.93;;;;;;;;;;5013273;28;20026;-80
2022/09/12 01:28:17;;;;;;;4.88;4.47;;;;;;;;;;5013151;28;20084;-81
2022/09/12 01:30:50;;;;;;;4.70;4.40;;;;;;;;;;5013104;28;20014;-80
2022/09/12 01:33:19;;;;;;;5.65;5.05;;;;;;;;;;5013052;28;20076;-80
2022/09/12 01:35:48;;;;;;;4.45;4.07;;;;;;;;;;5013016;28;20028;-81
2022/09/12 01:38:35;;;;;;;4.78;4.38;;;;;;;;;;5013437;28;20535;-81
2022/09/12 01:41:07;;;;;;;6.97;5.30;;;;;;;;;;5012932;28;20060;-81
2022/09/12 01:43:41;;;;;;;5.80;4.93;;;;;;;;;;5012902;28;20112;-83
2022/09/12 01:46:07;;;;;;;6.18;5.28;;;;;;;;;;5013067;28;20061;-81
2022/09/12 01:48:35;;;;;;;7.10;5.32;;;;;;;;;;5013040;28;20504;-82
2022/09/12 01:51:20;;;;;;;4.75;4.35;;;;;;;;;;5012885;28;20096;-82
2022/09/12 01:53:59;;;;;;;4.50;4.10;;;;;;;;;;5012744;28;20080;-83
2022/09/12 01:56:27;;;;;;;4.10;3.58;;;;;;;;;;5012884;28;20022;-81
2022/09/12 01:58:57;;;;;;;4.55;4.15;;;;;;;;;;5012601;28;20561;-82
2022/09/12 02:01:37;;;;;;;5.25;4.53;;;;;;;;;;5012728;28;20018;-81
2022/09/12 02:04:07;;;;;;;5.53;4.85;;;;;;;;;;5012763;28;20032;-81
2022/09/12 02:06:52;;;;;;;4.82;4.43;;;;;;;;;;5014841;28;20025;-80
2022/09/12 02:09:23;;;;;;;5.85;5.35;;;;;;;;;;5016753;28;20452;-81
2022/09/12 02:11:51;;;;;;;5.28;4.25;;;;;;;;;;5016883;28;20057;-82
2022/09/12 02:14:40;;;;;;;4.55;4.20;;;;;;;;;;5016576;28;20022;-81
2022/09/12 02:17:09;;;;;;;5.47;5.03;;;;;;;;;;5006303;28;20038;-81
2022/09/12 02:19:39;;;;;;;4.90;4.40;;;;;;;;;;5016650;28;20026;-81
2022/09/12 02:22:06;;;;;;;4.38;3.97;;;;;;;;;;5016458;28;20095;-81
2022/09/12 02:24:43;;;;;;;4.97;4.47;;;;;;;;;;5016630;28;20068;-82
2022/09/12 02:27:12;;;;;;;5.18;4.63;;;;;;;;;;5016700;28;20469;-80
2022/09/12 02:29:38;;;;;;;4.93;4.47;;;;;;;;;;5016804;28;20377;-81
2022/09/12 02:32:05;;;;;;;5.97;4.82;;;;;;;;;;5016355;28;20053;-81
2022/09/12 02:34:48;;;;;;;5.63;5.10;;;;;;;;;;5007200;28;20425;-81
2022/09/12 02:37:24;;;;;;;6.53;4.93;;;;;;;;;;5016341;28;20033;-82
2022/09/12 02:39:53;;;;;;;6.55;5.22;;;;;;;;;;5016334;28;20029;-82
2022/09/12 02:42:19;;;;;;;6.80;4.72;;;;;;;;;;5016174;28;20022;-83
2022/09/12 02:44:45;;;;;;;5.18;4.60;;;;;;;;;;5016115;28;20025;-81
2022/09/12 02:47:30;;;;;;;5.28;4.70;;;;;;;;;;5016164;28;20381;-81
2022/09/12 02:49:56;;;;;;;5.78;5.18;;;;;;;;;;5016210;28;20101;-81
2022/09/12 02:52:22;;;;;;;5.78;4.47;;;;;;;;;;5015898;28;20022;-81
2022/09/12 02:54:49;;;;;;;5.50;5.00;;;;;;;;;;5016029;28;20029;-81
2022/09/12 02:57:16;;;;;;;5.03;4.55;;;;;;;;;;5015780;28;20033;-82
2022/09/12 02:59:42;;;;;;;5.20;4.55;;;;;;;;;;5015986;28;20152;-83
2022/09/12 03:02:20;;;;;;;5.57;4.93;;;;;;;;;;5015773;28;20109;-82
2022/09/12 03:04:46;;;;;;;5.00;4.50;;;;;;;;;;5015831;28;20026;-81
2022/09/12 03:07:31;;;;;;;5.15;4.70;;;;;;;;;;5015630;28;20026;-83
2022/09/12 03:10:06;;;;;;;5.18;4.68;;;;;;;;;;5015554;28;20028;-83
2022/09/12 03:12:32;;;;;;;5.80;5.25;;;;;;;;;;5015751;28;20017;-81
2022/09/12 03:15:17;;;;;;;5.55;5.05;;;;;;;;;;5015488;28;20037;-83
2022/09/12 03:17:43;;;;;;;;;;;;;;;;;;5015553;28;20117;-82
2022/09/12 03:20:20;;;;;;;5.72;5.20;;;;;;;;;;5015589;28;19956;-80
2022/09/12 03:22:49;;;;;;;6.10;5.60;;;;;;;;;;5015552;28;20030;-80
2022/09/12 03:25:21;;;;;;;5.85;5.10;;;;;;;;;;5015219;28;20028;-82
2022/09/12 03:27:53;;;;;;;8.35;5.13;;;;;;;;;;5015441;28;20056;-80
2022/09/12 03:30:19;;;;;;;6.50;4.97;;;;;;;;;;5015268;28;20025;-84
2022/09/12 03:32:49;;;;;;;6.07;5.57;;;;;;;;;;5015881;28;20025;-80
2022/09/12 03:35:17;;;;;;;5.25;4.82;;;;;;;;;;5015049;28;20081;-81
2022/09/12 03:37:43;;;;;;;6.85;6.18;;;;;;;;;;5015245;28;20026;-82
2022/09/12 03:40:10;;;;;;;5.90;5.30;;;;;;;;;;5015104;28;20030;-81
2022/09/12 03:42:37;;;;;;;6.65;5.75;;;;;;;;;;5015138;28;20093;-81
2022/09/12 03:45:03;;;;;;;6.28;5.78;;;;;;;;;;5015036;28;20034;-84
2022/09/12 03:47:29;;;;;;;6.03;5.47;;;;;;;;;;5014946;28;20033;-82
2022/09/12 03:49:55;;;;;;;6.05;5.50;;;;;;;;;;5014958;28;20045;-82
2022/09/12 03:52:21;;;;;;;7.22;6.55;;;;;;;;;;5014765;28;20018;-81
2022/09/12 03:54:47;;;;;;;6.10;5.53;;;;;;;;;;5014981;28;20033;-81
2022/09/12 03:57:14;;;;;;;7.30;6.60;;;;;;;;;;4997225;28;20025;-81
2022/09/12 03:59:40;;;;;;;6.72;6.07;;;;;;;;;;4997298;28;20036;-81
2022/09/12 04:02:06;;;;;;;22.00;19.58;;;;;;;;;;4997314;28;20463;-81
2022/09/12 04:04:32;;;;;;;9.52;8.57;;;;;;;;;;5014404;28;20384;-82
2022/09/12 04:06:58;;;;;;;7.25;6.53;;;;;;;;;;5014705;28;20477;-83
2022/09/12 04:09:24;;;;;;;7.20;6.47;;;;;;;;;;5014379;28;20053;-83
2022/09/12 04:11:51;;;;;;;7.05;6.38;;;;;;;;;;5014390;28;20030;-82
2022/09/12 04:14:17;;;;;;;7.40;6.70;;;;;;;;;;5014318;28;20032;-82
2022/09/12 04:16:43;;;;;;;14.85;13.35;;;;;;;;;;5014238;28;20492;-81
2022/09/12 04:19:11;;;;;;;7.68;7.00;;;;;;;;;;5014280;28;20030;-83
2022/09/12 04:21:38;;;;;;;7.53;6.72;;;;;;;;;;5014106;28;20022;-82
2022/09/12 04:24:05;;;;;;;7.13;5.97;;;;;;;;;;5014031;28;20109;-81
2022/09/12 04:26:33;;;;;;;7.65;7.03;;;;;;;;;;5013905;28;20030;-83
2022/09/12 04:28:59;;;;;;;7.60;6.97;;;;;;;;;;5016291;28;20034;-81
2022/09/12 04:31:25;;;;;;;7.20;6.50;;;;;;;;;;5018523;28;20054;-82
2022/09/12 04:33:58;;;;;;;7.07;6.40;;;;;;;;;;5024018;28;20056;-82
2022/09/12 04:36:25;;;;;;;7.72;7.03;;;;;;;;;;5013783;28;20456;-85
2022/09/12 04:38:51;;;;;;;6.97;5.93;;;;;;;;;;5014079;28;20029;-81
2022/09/12 04:41:19;;;;;;;8.18;7.20;;;;;;;;;;5014598;28;20125;-82
2022/09/12 04:43:45;;;;;;;7.50;6.80;;;;;;;;;;5013835;28;20049;-81
2022/09/12 04:46:14;;;;;;;7.95;6.60;;;;;;;;;;5013907;28;20104;-83
2022/09/12 04:48:40;;;;;;;8.30;7.32;;;;;;;;;;5013449;28;20053;-81
2022/09/12 04:51:07;;;;;;;11.30;10.18;;;;;;;;;;5013813;28;20473;-80
2022/09/12 04:53:34;;;;;;;8.82;7.45;;;;;;;;;;5013380;28;20522;-81
2022/09/12 04:56:07;;;;;;;7.60;6.82;;;;;;;;;;5013150;28;20476;-81
2022/09/12 04:58:33;;;;;;;6.82;6.10;;;;;;;;;;5013420;28;20064;-82
2022/09/12 05:01:18;;;;;;;7.05;6.40;;;;;;;;;;5013668;28;20541;-80
2022/09/12 05:03:44;;;;;;;;;;;;;;;;;;5013880;28;20109;-80
2022/09/12 05:06:33;;;;;;;6.88;6.28;;;;;;;;;;5013404;28;19909;-85
2022/09/12 05:09:00;;;;;;;6.82;6.22;;;;;;;;;;5015497;28;20033;-84
2022/09/12 05:11:30;;;;;;;6.10;5.60;;;;;;;;;;5033372;28;20128;-81
2022/09/12 05:13:57;;;;;;;6.20;5.60;;;;;;;;;;5033191;28;20079;-80
2022/09/12 05:16:23;;;;;;;8.50;7.55;;;;;;;;;;5033123;28;20052;-81
2022/09/12 05:18:49;;;;;;;7.65;6.88;;;;;;;;;;5032568;28;20032;-81
2022/09/12 05:21:17;;;;;;;7.45;6.75;;;;;;;;;;5021584;28;20014;-81
2022/09/12 05:23:43;;;;;;;8.70;6.38;;;;;;;;;;5011626;28;20022;-84
2022/09/12 05:26:14;;;;;;;7.50;6.47;;;;;;;;;;5012901;28;20030;-84
2022/09/12 05:28:40;;;;;;;6.47;5.97;;;;;;;;;;5012120;28;20097;-84
2022/09/12 05:31:08;;;;;;;9.25;8.25;;;;;;;;;;5004122;28;20057;-82
2022/09/12 05:33:35;;;;;;;6.75;6.15;;;;;;;;;;5010246;28;20059;-85
2022/09/12 05:36:02;;;;;;;6.72;5.85;;;;;;;;;;5008759;28;20026;-79
2022/09/12 05:38:28;;;;;;;6.85;5.97;;;;;;;;;;5010481;28;20113;-78
2022/09/12 05:41:02;;;;;;;5.32;4.82;;;;;;;;;;5012451;28;20138;-78
2022/09/12 05:43:29;;;;;;;6.40;5.80;;;;;;;;;;5012716;28;20026;-80
2022/09/12 05:46:04;;;;;;;6.15;5.38;;;;;;;;;;5012300;28;20030;-81
2022/09/12 05:48:30;;;;;;;5.43;4.60;;;;;;;;;;5011551;28;20099;-80
2022/09/12 05:51:18;;;;;;;6.25;5.18;;;;;;;;;;4998839;28;20025;-78
2022/09/12 05:53:44;;;;;;;8.43;6.38;;;;;;;;;;4997808;28;20499;-81
2022/09/12 05:56:12;;;;;;;10.18;8.20;;;;;;;;;;5005250;28;20057;-82
2022/09/12 05:58:41;;;;;;;8.88;6.18;;;;;;;;;;5008408;28;20026;-81
2022/09/12 06:01:09;;;;;;;9.82;6.35;;;;;;;;;;4996858;28;20021;-80
2022/09/12 06:03:36;;;;;;;6.47;5.72;;;;;;;;;;4991920;28;20033;-78
2022/09/12 06:06:03;;;;;;;5.70;5.07;;;;;;;;;;4991383;28;20026;-78
2022/09/12 06:08:29;;;;;;;6.78;4.95;;;;;;;;;;5009585;28;20389;-81
2022/09/12 06:11:14;;;;;;;4.95;4.55;;;;;;;;;;5003661;28;20029;-78
2022/09/12 06:13:41;;;;;;;5.53;4.65;;;;;;;;;;5007730;28;20032;-80
2022/09/12 06:16:08;;;;;;;6.43;5.25;;;;;;;;;;5010698;28;20117;-80
2022/09/12 06:18:35;;;;;;;6.20;5.20;;;;;;;;;;5007791;28;20152;-80
2022/09/12 06:21:08;;;;;;;5.60;4.60;;;;;;;;;;5010645;28;20018;-80
2022/09/12 06:23:34;;;;;;;4.93;4.40;;;;;;;;;;5009183;28;20030;-80
2022/09/12 06:26:01;;;;;;;6.45;5.10;;;;;;;;;;5010310;28;20078;-77
2022/09/12 06:28:28;;;;;;;5.22;4.72;;;;;;;;;;5009436;28;20026;-76
2022/09/12 06:30:54;;;;;;;4.50;3.95;;;;;;;;;;5010794;28;20076;-78
2022/09/12 06:33:20;;;;;;;4.78;4.38;;;;;;;;;;5014319;28;20063;-79
2022/09/12 06:35:46;;;;;;;13.95;12.38;;;;;;;;;;5010751;28;20031;-79
2022/09/12 06:38:12;;;;;;;6.38;4.68;;;;;;;;;;5009723;28;20037;-79
2022/09/12 06:40:46;;;;;;;7.20;5.40;;;;;;;;;;5011183;28;20041;-81
2022/09/12 06:43:15;;;;;;;7.63;6.80;;;;;;;;;;5011162;28;20105;-82
2022/09/12 06:45:48;;;;;;;7.15;4.85;;;;;;;;;;5011001;28;20030;-81
2022/09/12 06:48:14;;;;;;;5.10;3.67;;;;;;;;;;5010280;28;20034;-81
2022/09/12 06:50:40;;;;;;;5.22;4.22;;;;;;;;;;5007951;28;20109;-79
2022/09/12 06:53:07;;;;;;;6.03;4.28;;;;;;;;;;5013665;28;20076;-81
2022/09/12 06:55:35;;;;;;;4.55;3.75;;;;;;;;;;5012871;28;20034;-80
2022/09/12 06:58:02;;;;;;;3.80;3.50;;;;;;;;;;5006321;28;20076;-78
2022/09/12 07:00:28;;;;;;;4.28;3.50;;;;;;;;;;5019008;28;20030;-81
2022/09/12 07:02:58;;;;;;;8.35;6.10;;;;;;;;;;5018085;28;20030;-78
2022/09/12 07:05:24;;;;;;;4.82;3.17;;;;;;;;;;5016554;28;20022;-82
2022/09/12 07:07:50;;;;;;;4.13;2.90;;;;;;;;;;5016952;28;20041;-79
2022/09/12 07:10:16;;;;;;;3.95;3.03;;;;;;;;;;5009939;28;20034;-78
2022/09/12 07:12:42;;;;;;;3.55;2.72;;;;;;;;;;5013009;28;20428;-79
2022/09/12 07:15:09;;;;;;;4.82;2.80;;;;;;;;;;5013086;28;20041;-78
2022/09/12 07:17:35;;;;;;;3.30;3.00;;;;;;;;;;5002008;28;20484;-78
2022/09/12 07:20:02;;;;;;;4.13;3.10;;;;;;;;;;5012625;28;20440;-77
2022/09/12 07:22:28;;;;;;;3.78;3.08;;;;;;;;;;5011651;28;20087;-77
2022/09/12 07:24:54;;;;;;;4.72;3.25;;;;;;;;;;5011543;28;20118;-76
2022/09/12 07:27:21;;;;;;;3.85;3.10;;;;;;;;;;5013265;28;20745;-79
2022/09/12 07:29:47;;;;;;;3.97;3.00;;;;;;;;;;5013211;28;20030;-76
2022/09/12 07:32:13;;;;;;;3.25;3.00;;;;;;;;;;5011968;28;20097;-78
2022/09/12 07:34:40;;;;;;;4.18;3.38;;;;;;;;;;5010255;28;20081;-76
2022/09/12 07:37:06;;;;;;;2.63;2.42;;;;;;;;;;5008437;28;20026;-77
2022/09/12 07:39:32;;;;;;;4.65;3.17;;;;;;;;;;5007353;28;20087;-78
2022/09/12 07:41:59;;;;;;;3.28;3.00;;;;;;;;;;5013258;28;20149;-79
2022/09/12 07:44:25;;;;;;;4.75;3.38;;;;;;;;;;5012922;28;20124;-80
2022/09/12 07:46:51;;;;;;;3.60;3.30;;;;;;;;;;5012356;28;20034;-77
2022/09/12 07:49:18;;;;;;;3.53;3.20;;;;;;;;;;5000771;28;20094;-78
2022/09/12 07:51:44;;;;;;;3.13;2.92;;;;;;;;;;5017524;28;20435;-78
2022/09/12 07:54:10;;;;;;;4.45;3.13;;;;;;;;;;5012963;28;20108;-78
2022/09/12 07:56:36;;;;;;;3.65;3.35;;;;;;;;;;5009538;28;20180;-78
2022/09/12 07:59:03;;;;;;;3.75;3.30;;;;;;;;;;5002082;28;20092;-78
2022/09/12 08:01:29;;;;;;;4.95;3.85;;;;;;;;;;5007663;28;20539;-82
2022/09/12 08:03:56;;;;;;;3.63;3.33;;;;;;;;;;5012056;28;20026;-76
2022/09/12 08:06:23;;;;;;;41.15;14.23;;;;;;;;;;5012794;28;20033;-77
2022/09/12 08:08:50;;;;;;;106.32;33.35;;;;;;;;;;5013096;28;20029;-76
2022/09/12 08:11:17;;;;;;;23.85;9.18;;;;;;;;;;5010425;28;20026;-76
2022/09/12 08:13:44;;;;;;;46.05;16.58;;;;;;;;;;5013103;28;20018;-79
2022/09/12 08:16:20;;;;;;;72.78;23.98;;;;;;;;;;5013203;28;20052;-77
2022/09/12 08:18:47;;;;;;;92.03;73.20;;;;;;;;;;5016239;28;20041;-79
2022/09/12 08:21:16;;;;;;;24.90;11.07;;;;;;;;;;5014891;28;20025;-77
2022/09/12 08:23:43;;;;;;;30.70;12.13;;;;;;;;;;5015970;28;20088;-76
2022/09/12 08:26:10;;;;;;;5.32;4.72;;;;;;;;;;5014355;28;20041;-77
2022/09/12 08:28:36;;;;;;;18.95;8.82;;;;;;;;;;5015676;28;20037;-76
2022/09/12 08:31:04;;;;;;;6.80;6.10;;;;;;;;;;5027824;28;20059;-78
2022/09/12 08:33:34;;;;;;;28.30;11.48;;;;;;;;;;5029590;28;20045;-79
2022/09/12 08:36:07;;;;;;;12.73;11.15;;;;;;;;;;5032245;28;20037;-77
2022/09/12 08:38:36;;;;;;;14.13;6.80;;;;;;;;;;5025707;28;20041;-76
2022/09/12 08:41:02;;;;;;;4.65;4.28;;;;;;;;;;5028857;28;20022;-77
2022/09/12 08:43:36;;;;;;;9.20;6.07;;;;;;;;;;5022050;28;20021;-79
2022/09/12 08:46:07;;;;;;;4.50;4.20;;;;;;;;;;5022594;28;20091;-80
2022/09/12 08:48:33;;;;;;;4.53;4.13;;;;;;;;;;5014966;28;20064;-79
2022/09/12 08:51:04;;;;;;;5.25;4.72;;;;;;;;;;5024605;28;20025;-80
2022/09/12 08:53:31;;;;;;;5.65;5.15;;;;;;;;;;5028127;28;20199;-76
2022/09/12 08:55:58;;;;;;;5.07;4.68;;;;;;;;;;5010005;28;20393;-78
2022/09/12 08:58:26;;;;;;;4.53;4.13;;;;;;;;;;5016509;28;20056;-76
2022/09/12 09:00:52;;;;;;;4.85;4.45;;;;;;;;;;5011406;28;20071;-75
2022/09/12 09:03:25;;;;;;;5.45;4.95;;;;;;;;;;5016281;28;20490;-77
2022/09/12 09:05:56;;;;;;;5.22;4.82;;;;;;;;;;5011670;28;20040;-77
2022/09/12 09:08:46;;;;;;;5.80;5.30;;;;;;;;;;5012087;28;20026;-77
2022/09/12 09:11:15;;;;;;;5.03;4.63;;;;;;;;;;5011760;28;20014;-77
2022/09/12 09:16:49;;;;;;;4.90;4.50;;;;;;;;;;5011792;28;20088;-77
2022/09/12 09:19:34;;;;;;;4.05;3.75;;;;;;;;;;5011022;28;20491;-76
2022/09/12 09:22:02;;;;;;;5.15;4.40;;;;;;;;;;5010977;28;20034;-78
2022/09/12 09:24:34;;;;;;;4.40;4.10;;;;;;;;;;5006918;28;20061;-77
2022/09/12 09:27:10;;;;;;;4.63;4.32;;;;;;;;;;5017099;28;20025;-79
2022/09/12 09:29:40;;;;;;;4.07;3.70;;;;;;;;;;5024713;28;20541;-79
2022/09/12 09:32:13;;;;;;;3.92;3.63;;;;;;;;;;5018947;28;20050;-76
2022/09/12 09:34:40;;;;;;;4.30;3.90;;;;;;;;;;4999146;28;20464;-77
2022/09/12 09:37:25;;;;;;;4.55;4.15;;;;;;;;;;4987287;28;20081;-76
2022/09/12 09:40:01;;;;;;;5.03;4.53;;;;;;;;;;4998944;28;20042;-79
2022/09/12 09:42:30;;;;;;;4.68;4.28;;;;;;;;;;5000161;28;20072;-76
2022/09/12 09:44:59;;;;;;;4.85;4.55;;;;;;;;;;4992604;28;20104;-78
2022/09/12 09:47:25;;;;;;;4.18;3.88;;;;;;;;;;4998961;28;20105;-76
2022/09/12 09:49:51;;;;;;;5.30;4.90;;;;;;;;;;4997904;28;20037;-77
2022/09/12 09:52:27;;;;;;;4.70;4.30;;;;;;;;;;4990543;28;20457;-80
2022/09/12 09:55:13;;;;;;;4.40;4.00;;;;;;;;;;4988489;28;20037;-78
2022/09/12 09:57:41;;;;;;;4.85;4.40;;;;;;;;;;4990589;28;20027;-82
2022/09/12 10:00:26;;;;;;;4.95;4.55;;;;;;;;;;4994757;28;20027;-79
2022/09/12 10:03:21;;;;;;;5.07;4.68;;;;;;;;;;4974485;28;20039;-77
2022/09/12 10:05:49;;;;;;;5.07;4.68;;;;;;;;;;4972252;28;20046;-79
2022/09/12 10:08:22;;;;;;;5.35;4.95;;;;;;;;;;4986359;28;20089;-78
2022/09/12 10:11:03;;;;;;;4.43;4.13;;;;;;;;;;4989236;28;20027;-78
2022/09/12 10:13:32;;;;;;;4.22;3.90;;;;;;;;;;4988870;28;20406;-81
2022/09/12 10:16:00;;;;;;;4.88;4.57;;;;;;;;;;4987388;28;20030;-84
2022/09/12 10:18:36;;;;;;;5.40;5.03;;;;;;;;;;4990850;28;20034;-81
2022/09/12 10:21:12;;;;;;;5.22;4.82;;;;;;;;;;4984404;28;20144;-85
2022/09/12 10:23:40;;;;;;;4.80;4.30;;;;;;;;;;4991134;28;20131;-84
2022/09/12 10:26:17;;;;;;;4.50;4.20;;;;;;;;;;4973310;28;20504;-78
2022/09/12 10:28:45;;;;;;;4.25;3.95;;;;;;;;;;4970531;28;20489;-82
2022/09/12 10:31:14;;;;;;;4.70;4.30;;;;;;;;;;5000152;28;20552;-79
2022/09/12 10:33:52;;;;;;;4.70;4.32;;;;;;;;;;5007894;28;20064;-80
2022/09/12 10:36:19;;;;;;;4.90;4.35;;;;;;;;;;5011608;28;20481;-81
2022/09/12 10:38:50;;;;;;;4.45;4.05;;;;;;;;;;5017791;28;20061;-83
2022/09/12 10:41:16;;;;;;;5.93;3.78;;;;;;;;;;5014074;28;20017;-80
2022/09/12 10:43:42;;;;;;;6.25;5.75;;;;;;;;;;5014284;28;20064;-79
2022/09/12 10:46:14;;;;;;;4.30;4.00;;;;;;;;;;5011893;28;20026;-78
2022/09/12 10:48:41;;;;;;;4.18;3.80;;;;;;;;;;5012197;28;20025;-81
2022/09/12 10:51:14;;;;;;;6.38;5.72;;;;;;;;;;4995628;28;20052;-79
2022/09/12 10:53:42;;;;;;;5.68;5.18;;;;;;;;;;5014534;28;20025;-82
2022/09/12 10:56:18;;;;;;;5.50;5.00;;;;;;;;;;5024351;28;20032;-82
2022/09/12 10:58:48;;;;;;;4.53;4.22;;;;;;;;;;5024837;28;20477;-81
2022/09/12 11:01:33;;;;;;;4.53;4.22;;;;;;;;;;5020018;28;20159;-81
2022/09/12 11:04:18;;;;;;;5.05;4.53;;;;;;;;;;5018849;28;20030;-79
2022/09/12 11:07:02;;;;;;;7.40;4.97;;;;;;;;;;5018341;28;20100;-82
2022/09/12 11:09:28;;;;;;;;;;;;;;;;;;5024180;28;20017;-85
2022/09/12 11:12:13;;;;;;;4.75;4.35;;;;;;;;;;5022142;28;20462;-78
2022/09/12 11:14:45;;;;;;;4.63;4.22;;;;;;;;;;5019809;28;20037;-80
2022/09/12 11:17:47;;;;;;;4.55;4.15;;;;;;;;;;5024020;28;20037;-83
2022/09/12 11:20:31;;;;;;;4.43;4.03;;;;;;;;;;4961469;28;20076;-83
2022/09/12 11:22:57;;;;;;;;;;;;;;;;;;5002616;28;20025;-82
2022/09/12 11:25:31;;;;;;;4.57;4.20;;;;;;;;;;5010943;28;20036;-81
2022/09/12 11:28:00;;;;;;;5.38;4.88;;;;;;;;;;4992085;28;20026;-81
2022/09/12 11:30:31;;;;;;;5.18;4.68;;;;;;;;;;5017746;28;20498;-79
2022/09/12 11:33:14;;;;;;;4.38;4.07;;;;;;;;;;5026845;28;20025;-79
2022/09/12 11:35:46;;;;;;;4.85;4.47;;;;;;;;;;5010580;28;20124;-77
2022/09/12 11:38:12;;;;;;;4.22;3.92;;;;;;;;;;5018593;28;20370;-77
2022/09/12 11:40:56;;;;;;;4.40;3.97;;;;;;;;;;5022042;28;20044;-78
2022/09/12 11:43:28;;;;;;;4.75;4.35;;;;;;;;;;5013007;28;20075;-77
2022/09/12 11:45:55;;;;;;;5.28;4.70;;;;;;;;;;5011822;28;20088;-79
2022/09/12 11:48:34;;;;;;;4.30;4.00;;;;;;;;;;5012018;28;20045;-79
2022/09/12 11:51:02;;;;;;;4.55;4.15;;;;;;;;;;5010548;28;20121;-75
2022/09/12 11:53:32;;;;;;;5.00;4.60;;;;;;;;;;5021087;28;20018;-77
2022/09/12 11:56:05;;;;;;;5.18;4.78;;;;;;;;;;5020422;28;20025;-73
2022/09/12 11:58:32;;;;;;;6.00;5.40;;;;;;;;;;5017461;28;20037;-75
2022/09/12 12:01:21;;;;;;;7.35;6.65;;;;;;;;;;5010923;28;20492;-79
2022/09/12 12:03:48;;;;;;;8.15;7.45;;;;;;;;;;4999735;28;20061;-77
2022/09/12 12:06:33;;;;;;;6.40;5.80;;;;;;;;;;5012983;28;20076;-82
2022/09/12 12:08:59;;;;;;;3.97;3.67;;;;;;;;;;5022833;28;20027;-79
2022/09/12 12:11:28;;;;;;;4.65;4.25;;;;;;;;;;5020640;28;20053;-78
2022/09/12 12:13:57;;;;;;;3.40;3.10;;;;;;;;;;5018964;28;20105;-80
2022/09/12 12:16:25;;;;;;;3.42;3.13;;;;;;;;;;5021579;28;20104;-78
2022/09/12 12:18:59;;;;;;;4.50;4.13;;;;;;;;;;5016813;28;20385;-77
2022/09/12 12:21:28;;;;;;;5.43;4.85;;;;;;;;;;5020433;28;20473;-77
2022/09/12 12:24:14;;;;;;;3.97;3.65;;;;;;;;;;5012687;28;20026;-77
2022/09/12 12:26:40;;;;;;;4.72;4.30;;;;;;;;;;5025150;28;20022;-77
2022/09/12 12:29:09;;;;;;;5.70;5.30;;;;;;;;;;5011326;28;20041;-79
2022/09/12 12:31:56;;;;;;;3.22;3.00;;;;;;;;;;5001721;28;20093;-78
2022/09/12 12:34:27;;;;;;;2.17;1.98;;;;;;;;;;5003206;28;20056;-79
2022/09/12 12:36:53;;;;;;;4.30;3.90;;;;;;;;;;5006447;28;20101;-79
2022/09/12 12:39:31;;;;;;;4.35;3.95;;;;;;;;;;5013565;28;20022;-80
2022/09/12 12:41:58;;;;;;;3.13;2.72;;;;;;;;;;5011644;28;20410;-77
2022/09/12 12:44:43;;;;;;;3.08;2.70;;;;;;;;;;5011445;28;20030;-77
2022/09/12 12:47:15;;;;;;;3.03;2.30;;;;;;;;;;5011155;28;20057;-80
2022/09/12 12:49:41;;;;;;;2.53;2.17;;;;;;;;;;5012354;28;20037;-78
2022/09/12 12:52:15;;;;;;;2.45;2.25;;;;;;;;;;5013660;28;20478;-76
2022/09/12 12:54:41;;;;;;;2.70;2.20;;;;;;;;;;5011929;28;20459;-78
2022/09/12 12:57:16;;;;;;;6.13;5.10;;;;;;;;;;5012139;28;20026;-78
2022/09/12 13:00:09;;;;;;;2.15;2.05;;;;;;;;;;5008762;28;20393;-77
2022/09/12 13:02:40;;;;;;;5.95;3.75;;;;;;;;;;4994407;28;20516;-78
2022/09/12 13:05:16;;;;;;;2.70;2.50;;;;;;;;;;5016926;28;20088;-79
2022/09/12 13:07:42;;;;;;;2.08;1.70;;;;;;;;;;5006383;28;20021;-79
2022/09/12 13:10:22;;;;;;;3.08;2.35;;;;;;;;;;5010337;28;20100;-78
2022/09/12 13:12:48;;;;;;;2.13;1.92;;;;;;;;;;5010629;28;20473;-78
2022/09/12 13:15:33;;;;;;;3.30;3.08;;;;;;;;;;5011393;28;20030;-79
2022/09/12 13:18:01;;;;;;;2.75;2.55;;;;;;;;;;5008104;28;20030;-79
2022/09/12 13:20:32;;;;;;;3.47;2.15;;;;;;;;;;5001257;28;20022;-78
2022/09/12 13:22:59;;;;;;;2.47;1.92;;;;;;;;;;5005854;28;20030;-77
2022/09/12 13:25:32;;;;;;;3.03;2.20;;;;;;;;;;5010606;28;20029;-78
2022/09/12 13:28:10;;;;;;;2.50;1.87;;;;;;;;;;5011202;28;20523;-79
2022/09/12 13:30:38;;;;;;;2.22;2.03;;;;;;;;;;5014794;28;20029;-80
2022/09/12 13:33:18;;;;;;;2.83;2.10;;;;;;;;;;5022447;28;20444;-80
2022/09/12 13:35:51;;;;;;;4.07;2.92;;;;;;;;;;5013003;28;20499;-80
2022/09/12 13:38:17;;;;;;;3.73;3.33;;;;;;;;;;5032365;28;20404;-81
2022/09/12 13:40:57;;;;;;;7.15;3.20;;;;;;;;;;5032202;28;20072;-81
2022/09/12 13:43:35;;;;;;;6.05;5.45;;;;;;;;;;5032426;28;20029;-83
2022/09/12 13:46:01;;;;;;;3.95;2.53;;;;;;;;;;5015032;28;20354;-81
2022/09/12 13:48:28;;;;;;;2.83;2.53;;;;;;;;;;5012665;28;20018;-81
2022/09/12 13:50:58;;;;;;;2.97;2.40;;;;;;;;;;5012630;28;20022;-79
2022/09/12 13:53:26;;;;;;;3.67;2.67;;;;;;;;;;5012684;28;20064;-81
2022/09/12 13:55:54;;;;;;;2.45;2.10;;;;;;;;;;5012193;28;20022;-78
2022/09/12 13:58:25;;;;;;;3.28;2.13;;;;;;;;;;5011647;28;20022;-82
2022/09/12 14:01:10;;;;;;;2.38;2.13;;;;;;;;;;5011767;28;20046;-81
2022/09/12 14:06:52;;;;;;;4.40;1.92;;;;;;;;;;5012004;28;20095;-80
2022/09/12 14:09:34;;;;;;;2.53;1.58;;;;;;;;;;5011618;28;20093;-81
2022/09/12 14:12:00;;;;;;;2.47;1.58;;;;;;;;;;5012018;28;20021;-84
2022/09/12 14:14:38;;;;;;;2.33;1.83;;;;;;;;;;5012663;28;20061;-83
2022/09/12 14:17:17;;;;;;;4.03;2.00;;;;;;;;;;5009291;28;20030;-80
2022/09/12 14:19:45;;;;;;;3.10;2.00;;;;;;;;;;5003036;28;20025;-80
2022/09/12 14:22:19;;;;;;;1.77;1.67;;;;;;;;;;5011801;28;20026;-82
2022/09/12 14:24:51;;;;;;;3.40;1.50;;;;;;;;;;5007245;28;20026;-80
2022/09/12 14:27:21;;;;;;;1.92;1.40;;;;;;;;;;5010249;28;20097;-83
2022/09/12 14:29:52;;;;;;;2.70;1.90;;;;;;;;;;5011824;28;20038;-80
2022/09/12 14:32:23;;;;;;;4.97;1.70;;;;;;;;;;5011524;28;20014;-81
2022/09/12 14:35:08;;;;;;;4.53;2.08;;;;;;;;;;5025971;28;20064;-80
2022/09/12 14:37:34;;;;;;;1.40;1.30;;;;;;;;;;5022297;28;20057;-80
2022/09/12 14:40:01;;;;;;;1.55;1.30;;;;;;;;;;5012084;28;20037;-78
2022/09/12 14:42:30;;;;;;;3.63;1.65;;;;;;;;;;5011993;28;20022;-81
2022/09/12 14:44:57;;;;;;;1.90;1.33;;;;;;;;;;5010864;28;20420;-79
2022/09/12 14:47:25;;;;;;;2.58;1.52;;;;;;;;;;5010050;28;20025;-78
2022/09/12 14:49:51;;;;;;;2.22;1.40;;;;;;;;;;5016893;28;20043;-80
2022/09/12 14:52:20;;;;;;;4.18;1.75;;;;;;;;;;5011902;28;20030;-81
2022/09/12 14:55:05;;;;;;;2.08;1.30;;;;;;;;;;5011909;28;20108;-84
2022/09/12 14:57:37;;;;;;;4.90;2.75;;;;;;;;;;4992589;28;20036;-79
2022/09/12 15:00:22;;;;;;;2.30;1.40;;;;;;;;;;4992302;28;20037;-81
2022/09/12 15:02:50;;;;;;;3.38;1.20;;;;;;;;;;4992322;28;20026;-80
2022/09/12 15:05:17;;;;;;;2.15;1.95;;;;;;;;;;4993427;28;20033;-81
2022/09/12 15:07:52;;;;;;;2.17;1.52;;;;;;;;;;5011045;28;20029;-83
2022/09/12 15:10:23;;;;;;;2.40;1.45;;;;;;;;;;5010940;28;20025;-82